Time;durP1;ratioP1;P1;durP2;ratioP2;P2;SDS_P1;SDS_P2;PMS_P1;PMS_P2;Temp;Humidity;BMP_temperature;BMP_pressure;BME280_temperature;BME280_humidity;BME280_pressure;Samples;Min_cycle;Max_cycle;Signal;HPM_P1;HPM_P2
2024/02/18 00:02:05;;;;;;;24.23;5.18;;;;;;;2.58;100.00;102015.75;5021511;28;20063;-75
2024/02/18 00:04:31;;;;;;;22.40;5.90;;;;;;;2.48;100.00;102037.31;5032529;28;20040;-75
2024/02/18 00:06:57;;;;;;;18.60;4.70;;;;;;;2.53;100.00;102097.72;5040304;28;20021;-74
2024/02/18 00:09:23;;;;;;;22.75;5.95;;;;;;;2.64;100.00;102126.19;5037628;28;20098;-74
2024/02/18 00:11:48;;;;;;;29.88;5.60;;;;;;;2.65;100.00;102102.38;5035056;28;20040;-73
2024/02/18 00:14:13;;;;;;;27.23;6.63;;;;;;;2.74;100.00;102098.44;5044720;28;20038;-73
2024/02/18 00:16:39;;;;;;;22.85;5.85;;;;;;;2.63;100.00;102061.19;5029475;28;20076;-73
2024/02/18 00:19:04;;;;;;;28.45;5.78;;;;;;;2.68;100.00;102090.81;5030176;28;20033;-74
2024/02/18 00:21:29;;;;;;;29.38;5.78;;;;;;;2.69;100.00;102076.69;5027528;28;20041;-74
2024/02/18 00:23:58;;;;;;;29.65;5.97;;;;;;;2.66;100.00;102050.47;5028289;28;20033;-73
2024/02/18 00:26:23;;;;;;;27.13;6.22;;;;;;;2.63;100.00;102055.94;5042201;28;20041;-75
2024/02/18 00:28:50;;;;;;;22.58;4.57;;;;;;;2.67;100.00;102073.28;5034556;28;20029;-73
2024/02/18 00:31:15;;;;;;;25.52;4.85;;;;;;;2.71;100.00;102088.00;5042192;28;20471;-75
2024/02/18 00:33:40;;;;;;;16.95;4.75;;;;;;;2.70;100.00;102083.69;5033786;28;20041;-74
2024/02/18 00:36:06;;;;;;;16.67;3.90;;;;;;;2.61;100.00;102058.63;5029357;28;20079;-76
2024/02/18 00:38:32;;;;;;;21.02;3.78;;;;;;;2.52;100.00;102067.84;5026957;28;20091;-73
2024/02/18 00:40:58;;;;;;;24.83;5.80;;;;;;;2.58;100.00;102102.78;5035134;28;20061;-75
2024/02/18 00:43:23;;;;;;;22.17;4.40;;;;;;;2.67;100.00;102120.72;5031395;28;20021;-73
2024/02/18 00:45:49;;;;;;;22.77;4.90;;;;;;;2.59;100.00;102101.81;5037185;28;20082;-73
2024/02/18 00:48:14;;;;;;;17.27;3.13;;;;;;;2.67;100.00;102115.47;5030184;28;20042;-73
2024/02/18 00:50:40;;;;;;;31.13;4.97;;;;;;;2.69;100.00;102080.19;5033779;28;20037;-75
2024/02/18 00:53:05;;;;;;;15.63;4.00;;;;;;;2.77;100.00;102084.22;5019237;28;20305;-73
2024/02/18 00:55:31;;;;;;;26.07;5.87;;;;;;;2.64;100.00;102052.34;5035151;28;20635;-75
2024/02/18 00:57:56;;;;;;;17.37;4.83;;;;;;;2.61;100.00;102068.34;5027749;28;20275;-77
2024/02/18 01:00:22;;;;;;;28.77;4.15;;;;;;;2.61;100.00;102066.53;5027439;28;20355;-73
2024/02/18 01:02:48;;;;;;;14.88;3.67;;;;;;;2.47;100.00;102035.59;5019507;28;20037;-75
2024/02/18 01:05:13;;;;;;;22.50;4.28;;;;;;;2.46;100.00;102065.53;5028533;28;20045;-73
2024/02/18 01:07:38;;;;;;;17.65;3.78;;;;;;;2.61;100.00;102121.06;5034142;28;20034;-73
2024/02/18 01:10:04;;;;;;;21.42;3.47;;;;;;;2.75;100.00;102105.38;5039818;28;20159;-73
2024/02/18 01:12:29;;;;;;;16.88;5.13;;;;;;;2.64;100.00;102053.19;5026523;28;20049;-73
2024/02/18 01:14:55;;;;;;;23.00;3.67;;;;;;;2.39;100.00;102002.66;5026338;28;20087;-73
2024/02/18 01:17:20;;;;;;;19.13;3.33;;;;;;;2.58;100.00;102094.88;5027153;28;20862;-74
2024/02/18 01:19:45;;;;;;;19.48;5.05;;;;;;;2.63;100.00;102088.41;5027498;28;20400;-73
2024/02/18 01:22:11;;;;;;;16.13;2.97;;;;;;;2.61;100.00;102079.72;5043487;28;20124;-76
2024/02/18 01:24:36;;;;;;;18.75;3.08;;;;;;;2.65;100.00;102070.72;5043801;28;20052;-78
2024/02/18 01:27:02;;;;;;;21.98;3.85;;;;;;;2.44;100.00;102022.59;5045479;28;20029;-73
2024/02/18 01:29:27;;;;;;;26.15;4.38;;;;;;;2.56;100.00;102087.03;5045033;28;20021;-75
2024/02/18 01:31:53;;;;;;;23.10;4.17;;;;;;;2.48;100.00;102047.88;5030345;28;20395;-73
2024/02/18 01:34:18;;;;;;;24.77;4.18;;;;;;;2.50;100.00;102067.06;5035126;28;20708;-73
2024/02/18 01:36:43;;;;;;;19.60;3.50;;;;;;;2.31;100.00;102029.41;5027205;28;20759;-74
2024/02/18 01:39:09;;;;;;;13.70;3.60;;;;;;;2.35;100.00;102115.31;5028596;28;20276;-73
2024/02/18 01:41:34;;;;;;;20.45;3.90;;;;;;;2.37;100.00;102145.09;5031845;28;20287;-74
2024/02/18 01:44:00;;;;;;;19.65;5.82;;;;;;;2.47;100.00;102135.78;5039734;28;20044;-73
2024/02/18 01:46:26;;;;;;;20.65;3.78;;;;;;;2.42;100.00;102093.00;5047041;28;20037;-73
2024/02/18 01:48:52;;;;;;;24.42;3.40;;;;;;;2.37;100.00;102113.44;5035219;28;20484;-79
2024/02/18 01:51:19;;;;;;;13.13;2.92;;;;;;;2.37;100.00;102149.50;5031652;28;20037;-73
2024/02/18 01:53:45;;;;;;;16.88;3.45;;;;;;;2.47;100.00;102154.25;5012292;28;20025;-73
2024/02/18 01:56:11;;;;;;;24.10;3.95;;;;;;;2.50;100.00;102159.34;5013257;28;20750;-73
2024/02/18 01:58:38;;;;;;;17.65;4.35;;;;;;;2.51;100.00;102174.25;5030419;28;20033;-75
2024/02/18 02:01:03;;;;;;;21.25;4.00;;;;;;;2.67;100.00;102176.13;5033248;28;20238;-73
2024/02/18 02:03:29;;;;;;;22.27;4.55;;;;;;;2.52;100.00;102119.72;5029155;28;20030;-74
2024/02/18 02:05:57;;;;;;;23.10;4.97;;;;;;;2.59;100.00;102128.19;5044252;28;20036;-74
2024/02/18 02:08:22;;;;;;;18.63;3.35;;;;;;;2.47;100.00;102148.97;5038570;28;20021;-73
2024/02/18 02:10:50;;;;;;;16.75;4.70;;;;;;;2.71;100.00;102201.41;5041876;28;20488;-76
2024/02/18 02:13:15;;;;;;;23.05;3.47;;;;;;;2.55;100.00;102151.22;5050120;28;20029;-73
2024/02/18 02:15:41;;;;;;;17.80;4.45;;;;;;;2.43;100.00;102150.03;5042118;28;20549;-77
2024/02/18 02:18:06;;;;;;;18.92;3.67;;;;;;;2.63;100.00;102200.94;5038238;28;20075;-76
2024/02/18 02:20:31;;;;;;;25.02;5.28;;;;;;;2.60;100.00;102203.72;5036957;28;20068;-74
2024/02/18 02:22:57;;;;;;;19.02;4.25;;;;;;;2.81;100.00;102250.16;5044201;28;20037;-74
2024/02/18 02:25:22;;;;;;;12.70;3.72;;;;;;;2.62;100.00;102196.59;5047781;28;20392;-74
2024/02/18 02:28:07;;;;;;;13.13;3.13;;;;;;;2.88;100.00;102264.75;5030963;28;20026;-73
2024/02/18 02:30:32;;;;;;;14.68;3.33;;;;;;;2.70;100.00;102179.47;5033797;28;20040;-73
2024/02/18 02:32:57;;;;;;;11.65;2.85;;;;;;;2.79;100.00;102214.25;5055516;28;20024;-73
2024/02/18 02:35:26;;;;;;;14.13;3.57;;;;;;;2.91;100.00;102227.66;5041114;28;20071;-73
2024/02/18 02:37:52;;;;;;;12.18;3.13;;;;;;;2.98;100.00;102224.72;5055276;28;20327;-73
2024/02/18 02:40:17;;;;;;;16.15;2.63;;;;;;;2.94;100.00;102227.50;5048366;28;20122;-75
2024/02/18 02:42:43;;;;;;;27.70;4.38;;;;;;;3.06;100.00;102233.94;5046361;28;20123;-74
2024/02/18 02:45:08;;;;;;;16.13;2.73;;;;;;;3.07;100.00;102217.19;5031826;28;20120;-75
2024/02/18 02:47:33;;;;;;;12.80;4.05;;;;;;;2.97;100.00;102165.81;5048606;28;20350;-75
2024/02/18 02:49:59;;;;;;;14.45;2.58;;;;;;;2.87;100.00;102157.50;5039195;28;20032;-74
2024/02/18 02:52:24;;;;;;;12.45;3.05;;;;;;;3.05;100.00;102215.56;5054356;28;20138;-75
2024/02/18 02:54:49;;;;;;;25.75;4.03;;;;;;;3.20;100.00;102233.25;5028907;28;20041;-75
2024/02/18 02:57:15;;;;;;;13.55;3.38;;;;;;;3.12;100.00;102201.13;5044237;28;20052;-75
2024/02/18 02:59:40;;;;;;;18.48;2.70;;;;;;;3.16;100.00;102197.38;5028812;28;20041;-75
2024/02/18 03:02:07;;;;;;;19.90;4.20;;;;;;;3.13;100.00;102171.16;5028561;28;20037;-74
2024/02/18 03:04:32;;;;;;;13.32;3.30;;;;;;;3.30;100.00;102192.25;5038604;28;20032;-75
2024/02/18 03:06:57;;;;;;;17.27;3.42;;;;;;;3.23;100.00;102140.72;5032097;28;20037;-74
2024/02/18 03:09:23;;;;;;;17.75;4.18;;;;;;;3.05;100.00;102117.94;5036635;28;20028;-75
2024/02/18 03:11:48;;;;;;;14.48;2.42;;;;;;;3.35;100.00;102178.81;5039026;28;20158;-74
2024/02/18 03:14:14;;;;;;;15.45;2.83;;;;;;;3.34;100.00;102166.53;5048434;28;20577;-74
2024/02/18 03:16:39;;;;;;;8.60;2.72;;;;;;;3.32;100.00;102134.09;5029365;28;20033;-75
2024/02/18 03:19:04;;;;;;;17.08;4.38;;;;;;;3.29;100.00;102089.38;5039977;28;20145;-75
2024/02/18 03:21:30;;;;;;;22.40;3.23;;;;;;;3.44;100.00;102122.00;5030070;28;20173;-74
2024/02/18 03:23:55;;;;;;;15.30;3.78;;;;;;;3.58;100.00;102114.19;5039596;28;20295;-74
2024/02/18 03:26:21;;;;;;;16.58;2.92;;;;;;;3.20;100.00;102040.56;5037893;28;20036;-74
2024/02/18 03:28:46;;;;;;;14.70;3.35;;;;;;;3.10;100.00;102058.69;5029089;28;20029;-73
2024/02/18 03:31:16;;;;;;;13.02;2.70;;;;;;;3.09;100.00;102100.97;5045574;28;20559;-73
2024/02/18 03:33:42;;;;;;;7.35;2.75;;;;;;;3.30;100.00;102125.38;5045405;28;20035;-74
2024/02/18 03:36:07;;;;;;;21.58;5.60;;;;;;;3.38;100.00;102110.84;5062816;28;20475;-75
2024/02/18 03:38:33;;;;;;;19.52;3.72;;;;;;;3.44;100.00;102116.72;5046056;28;20399;-75
2024/02/18 03:40:58;;;;;;;12.18;3.08;;;;;;;3.44;100.00;102095.63;5043720;28;20044;-75
2024/02/18 03:43:29;;;;;;;22.35;3.90;;;;;;;3.47;100.00;102063.78;5045654;28;20032;-74
2024/02/18 03:45:54;;;;;;;19.17;5.75;;;;;;;3.20;100.00;102030.00;5045960;28;20037;-74
2024/02/18 03:48:20;;;;;;;24.90;5.30;;;;;;;3.32;100.00;102055.72;5063226;28;20024;-74
2024/02/18 03:50:45;;;;;;;17.45;3.13;;;;;;;3.17;100.00;102068.00;5042031;28;20033;-74
2024/02/18 03:53:10;;;;;;;17.15;3.10;;;;;;;3.35;100.00;102095.19;5045052;28;20043;-76
2024/02/18 03:55:36;;;;;;;16.83;4.32;;;;;;;3.17;100.00;102051.31;5038224;28;20049;-76
2024/02/18 03:58:01;;;;;;;23.95;3.55;;;;;;;3.34;100.00;102097.91;5046774;28;20099;-75
2024/02/18 04:00:27;;;;;;;13.00;2.83;;;;;;;3.52;100.00;102122.47;5029214;28;20028;-74
2024/02/18 04:02:52;;;;;;;;;;;;;;;3.59;100.00;102100.91;5045696;28;20399;-74
2024/02/18 04:05:18;;;;;;;29.55;4.85;;;;;;;3.40;100.00;102047.41;5048340;28;19913;-74
2024/02/18 04:07:43;;;;;;;20.27;3.63;;;;;;;3.28;100.00;102027.81;5051640;28;20091;-73
2024/02/18 04:10:09;;;;;;;11.70;3.70;;;;;;;3.28;100.00;102054.22;5044813;28;20547;-74
2024/02/18 04:12:35;;;;;;;13.15;2.85;;;;;;;3.29;100.00;102063.84;5048599;28;20177;-74
2024/02/18 04:15:00;;;;;;;26.25;4.30;;;;;;;3.29;100.00;102076.19;5049349;28;20033;-74
2024/02/18 04:17:26;;;;;;;17.30;3.67;;;;;;;3.51;100.00;102113.69;5057402;28;20535;-75
2024/02/18 04:19:51;;;;;;;18.07;4.03;;;;;;;3.51;100.00;102091.69;5059804;28;20039;-75
2024/02/18 04:22:16;;;;;;;30.30;6.63;;;;;;;3.58;100.00;102093.06;5062787;28;20266;-75
2024/02/18 04:24:42;;;;;;;15.33;3.27;;;;;;;3.31;100.00;102046.13;5059213;28;20294;-74
2024/02/18 04:27:08;;;;;;;20.05;3.20;;;;;;;3.43;100.00;102080.72;5045096;28;20382;-74
2024/02/18 04:29:37;;;;;;;15.27;3.33;;;;;;;3.34;100.00;102075.00;5052722;28;20024;-74
2024/02/18 04:32:03;;;;;;;22.70;3.15;;;;;;;3.47;100.00;102127.16;5045126;28;20439;-74
2024/02/18 04:34:29;;;;;;;17.05;3.38;;;;;;;3.46;100.00;102102.50;5028337;28;20021;-74
2024/02/18 04:36:55;;;;;;;13.75;5.15;;;;;;;3.60;100.00;102107.03;5044986;28;20053;-74
2024/02/18 04:39:20;;;;;;;20.92;4.00;;;;;;;3.71;100.00;102098.53;5028489;28;20035;-74
2024/02/18 04:41:45;;;;;;;23.40;3.92;;;;;;;3.71;100.00;102072.13;5050296;28;20123;-75
2024/02/18 04:44:11;;;;;;;18.13;3.75;;;;;;;3.60;100.00;102051.59;5055341;28;20123;-75
2024/02/18 04:46:36;;;;;;;21.35;4.35;;;;;;;3.69;100.00;102053.72;5044581;28;20098;-74
2024/02/18 04:49:02;;;;;;;20.02;4.93;;;;;;;3.74;100.00;102061.38;5044587;28;20546;-73
2024/02/18 04:51:28;;;;;;;;;;;;;;;3.55;100.00;102040.44;5045542;28;20063;-73
2024/02/18 04:53:53;;;;;;;23.58;4.65;;;;;;;3.68;100.00;102086.34;5028028;28;19959;-73
2024/02/18 04:56:19;;;;;;;18.42;5.40;;;;;;;3.90;100.00;102103.66;5045664;28;20150;-75
2024/02/18 04:58:44;;;;;;;28.85;5.40;;;;;;;3.71;100.00;102072.97;5044552;28;20626;-76
2024/02/18 05:01:10;;;;;;;18.75;4.07;;;;;;;3.76;100.00;102043.66;5044509;28;20876;-75
2024/02/18 05:03:35;;;;;;;57.78;5.93;;;;;;;3.87;100.00;102072.13;5035387;28;20624;-74
2024/02/18 05:06:01;;;;;;;14.50;4.33;;;;;;;3.84;100.00;102067.00;5044255;28;20411;-73
2024/02/18 05:08:26;;;;;;;25.90;4.38;;;;;;;3.96;100.00;102077.75;5061289;28;20317;-76
2024/02/18 05:10:52;;;;;;;13.23;4.55;;;;;;;4.15;100.00;102087.25;5044814;28;20064;-75
2024/02/18 05:13:17;;;;;;;25.10;4.68;;;;;;;4.34;100.00;102081.75;5045336;28;20029;-74
2024/02/18 05:15:42;;;;;;;14.60;3.47;;;;;;;4.11;100.00;102020.50;5052007;28;20040;-76
2024/02/18 05:18:08;;;;;;;10.73;3.83;;;;;;;4.16;100.00;102036.94;5063228;28;20283;-76
2024/02/18 05:20:33;;;;;;;15.35;4.35;;;;;;;4.11;100.00;102014.38;5047762;28;20415;-75
2024/02/18 05:22:59;;;;;;;20.60;4.47;;;;;;;3.97;100.00;102031.00;5038957;28;20133;-76
2024/02/18 05:25:24;;;;;;;17.77;5.43;;;;;;;4.19;100.00;102055.28;5054586;28;20116;-76
2024/02/18 05:27:51;;;;;;;19.73;6.15;;;;;;;4.17;100.00;102043.94;5048303;28;20319;-76
2024/02/18 05:30:16;;;;;;;25.00;7.47;;;;;;;4.12;100.00;102047.78;5054985;28;20038;-73
2024/02/18 05:32:41;;;;;;;17.20;4.93;;;;;;;4.39;100.00;102066.47;5047269;28;20017;-75
2024/02/18 05:35:07;;;;;;;15.87;4.57;;;;;;;4.30;100.00;102044.06;5046304;28;20979;-76
2024/02/18 05:37:32;;;;;;;23.80;6.38;;;;;;;4.11;100.00;102030.22;5048071;28;20025;-76
2024/02/18 05:39:58;;;;;;;20.97;5.07;;;;;;;4.21;100.00;102041.94;5053445;28;20511;-73
2024/02/18 05:42:23;;;;;;;13.30;3.70;;;;;;;4.34;100.00;102066.75;5056881;28;20538;-76
2024/02/18 05:44:48;;;;;;;22.97;6.17;;;;;;;4.36;100.00;102064.88;5048674;28;20591;-76
2024/02/18 05:47:14;;;;;;;18.13;4.27;;;;;;;4.29;100.00;102065.31;5064150;28;20115;-75
2024/02/18 05:49:39;;;;;;;16.73;4.97;;;;;;;4.31;100.00;102066.94;5050908;28;20325;-76
2024/02/18 05:52:05;;;;;;;18.67;4.28;;;;;;;4.53;100.00;102078.88;5059019;28;20036;-76
2024/02/18 05:54:30;;;;;;;23.58;7.30;;;;;;;4.50;100.00;102040.25;5058355;28;20910;-73
2024/02/18 05:56:56;;;;;;;19.08;6.45;;;;;;;4.42;100.00;102051.28;5057951;28;20121;-72
2024/02/18 05:59:21;;;;;;;22.45;6.75;;;;;;;4.28;100.00;102027.44;5068141;28;20059;-73
2024/02/18 06:01:46;;;;;;;15.98;4.97;;;;;;;4.49;100.00;102094.06;5067931;28;20029;-75
2024/02/18 06:04:12;;;;;;;18.87;4.83;;;;;;;4.58;100.00;102096.16;5066925;28;20040;-76
2024/02/18 06:06:37;;;;;;;16.33;4.53;;;;;;;4.54;100.00;102070.00;5063323;28;20294;-76
2024/02/18 06:09:02;;;;;;;21.13;5.20;;;;;;;4.31;100.00;102076.63;5062957;28;20086;-75
2024/02/18 06:11:28;;;;;;;13.70;5.65;;;;;;;4.57;100.00;102120.94;5068025;28;20283;-75
2024/02/18 06:13:53;;;;;;;18.15;5.55;;;;;;;4.52;100.00;102109.78;5067757;28;20028;-75
2024/02/18 06:16:19;;;;;;;31.90;8.33;;;;;;;4.48;100.00;102089.72;5066813;28;20533;-74
2024/02/18 06:18:44;;;;;;;23.27;5.95;;;;;;;4.47;100.00;102132.97;5067850;28;20484;-75
2024/02/18 06:21:19;;;;;;;28.23;7.40;;;;;;;4.54;100.00;102142.28;5065614;28;20101;-75
2024/02/18 06:23:45;;;;;;;21.05;5.53;;;;;;;4.51;100.00;102145.09;5066358;28;20445;-74
2024/02/18 06:26:10;;;;;;;21.30;7.53;;;;;;;4.45;100.00;102158.69;5048633;28;20044;-75
2024/02/18 06:28:35;;;;;;;23.50;7.53;;;;;;;4.40;100.00;102181.88;5049487;28;20032;-73
2024/02/18 06:31:02;;;;;;;22.33;7.77;;;;;;;4.44;100.00;102223.06;5067286;28;20040;-72
2024/02/18 06:33:29;;;;;;;26.58;8.45;;;;;;;4.29;100.00;102200.16;5065346;28;20046;-75
2024/02/18 06:35:54;;;;;;;30.60;9.93;;;;;;;4.46;100.00;102237.06;5066775;28;20043;-75
2024/02/18 06:38:19;;;;;;;35.17;9.82;;;;;;;4.46;100.00;102223.00;5056930;28;20040;-75
2024/02/18 06:40:45;;;;;;;28.77;9.03;;;;;;;4.42;100.00;102222.31;5065730;28;20355;-73
2024/02/18 06:43:10;;;;;;;36.23;12.37;;;;;;;4.50;100.00;102216.59;5067177;28;20317;-75
2024/02/18 06:45:35;;;;;;;29.13;10.47;;;;;;;4.31;100.00;102192.97;5043107;28;20087;-74
2024/02/18 06:48:01;;;;;;;29.42;9.65;;;;;;;4.32;100.00;102211.41;5057348;28;20286;-72
2024/02/18 06:50:26;;;;;;;25.67;9.83;;;;;;;4.50;100.00;102222.75;5056420;28;20032;-74
2024/02/18 06:52:51;;;;;;;30.00;11.77;;;;;;;4.32;100.00;102170.88;5040138;28;20049;-74
2024/02/18 06:55:17;;;;;;;39.27;10.80;;;;;;;4.64;100.00;102193.72;5046686;28;20283;-75
2024/02/18 06:57:44;;;;;;;34.03;10.60;;;;;;;4.47;100.00;102187.66;5046253;28;20021;-75
2024/02/18 07:00:10;;;;;;;37.78;11.63;;;;;;;4.58;100.00;102191.41;5045957;28;20037;-74
2024/02/18 07:02:36;;;;;;;28.70;11.57;;;;;;;4.62;100.00;102186.81;5050282;28;20063;-73
2024/02/18 07:05:05;;;;;;;34.60;12.50;;;;;;;4.59;100.00;102171.97;5058004;28;20117;-74
2024/02/18 07:07:30;;;;;;;37.22;13.88;;;;;;;4.73;100.00;102178.22;5058500;28;20865;-75
2024/02/18 07:09:55;;;;;;;31.67;12.38;;;;;;;4.57;100.00;102160.63;5052574;28;20040;-73
2024/02/18 07:12:21;;;;;;;35.17;11.63;;;;;;;4.79;100.00;102178.72;5064403;28;20047;-75
2024/02/18 07:14:46;;;;;;;31.67;11.93;;;;;;;4.65;100.00;102155.72;5065681;28;20104;-74
2024/02/18 07:17:13;;;;;;;39.03;12.65;;;;;;;4.78;100.00;102161.16;5043043;28;20041;-75
2024/02/18 07:19:38;;;;;;;29.80;12.85;;;;;;;4.96;100.00;102171.59;5065374;28;20029;-75
2024/02/18 07:22:05;;;;;;;37.85;14.30;;;;;;;4.99;100.00;102168.78;5058537;28;20040;-74
2024/02/18 07:24:31;;;;;;;38.00;14.32;;;;;;;5.00;100.00;102165.16;5064784;28;20562;-73
2024/02/18 07:26:56;;;;;;;45.53;15.20;;;;;;;4.90;100.00;102143.69;5065046;28;20039;-75
2024/02/18 07:29:21;;;;;;;38.40;14.03;;;;;;;4.88;100.00;102150.03;5066574;28;20040;-75
2024/02/18 07:31:47;;;;;;;31.67;14.43;;;;;;;5.03;100.00;102163.19;5064863;28;20273;-75
2024/02/18 07:34:12;;;;;;;46.70;14.70;;;;;;;5.01;100.00;102157.16;5065018;28;20036;-75
2024/02/18 07:36:38;;;;;;;40.85;15.68;;;;;;;5.03;100.00;102149.97;5064121;28;20104;-76
2024/02/18 07:39:04;;;;;;;;;;;;;;;5.07;100.00;102151.47;5062547;28;20424;-75
2024/02/18 07:41:29;;;;;;;37.53;15.13;;;;;;;5.16;100.00;102135.97;5052355;28;19920;-76
2024/02/18 07:43:54;;;;;;;41.53;14.32;;;;;;;4.86;100.00;102116.53;5048649;28;20031;-75
2024/02/18 07:46:20;;;;;;;35.95;16.27;;;;;;;4.97;100.00;102145.03;5048806;28;20843;-74
2024/02/18 07:48:45;;;;;;;42.95;16.50;;;;;;;5.04;100.00;102145.53;5053542;28;20527;-74
2024/02/18 07:51:11;;;;;;;44.58;15.25;;;;;;;4.98;100.00;102141.44;5045027;28;20384;-74
2024/02/18 07:53:36;;;;;;;42.92;18.23;;;;;;;5.26;100.00;102160.94;5053927;28;20021;-74
2024/02/18 07:56:01;;;;;;;44.58;17.38;;;;;;;5.34;100.00;102141.94;5037853;28;20049;-75
2024/02/18 07:58:27;;;;;;;43.03;15.80;;;;;;;5.26;100.00;102122.06;5041749;28;20099;-75
2024/02/18 08:00:52;;;;;;;38.97;15.57;;;;;;;5.34;100.00;102136.63;5038971;28;20318;-73
2024/02/18 08:03:17;;;;;;;40.20;15.90;;;;;;;5.47;100.00;102127.00;5043653;28;20029;-76
2024/02/18 08:05:43;;;;;;;43.80;14.60;;;;;;;5.30;100.00;102120.09;5045537;28;20086;-75
2024/02/18 08:08:08;;;;;;;45.43;16.27;;;;;;;5.37;100.00;102121.41;5043692;28;20295;-76
2024/02/18 08:10:33;;;;;;;41.47;16.05;;;;;;;5.52;100.00;102126.72;5033897;28;20127;-76
2024/02/18 08:12:59;;;;;;;36.63;15.38;;;;;;;5.66;100.00;102130.19;5024631;28;20029;-76
2024/02/18 08:15:24;;;;;;;48.10;18.90;;;;;;;5.42;100.00;102092.00;5037347;28;20025;-76
2024/02/18 08:17:50;;;;;;;48.03;16.50;;;;;;;5.44;100.00;102104.19;5049762;28;20300;-76
2024/02/18 08:20:15;;;;;;;37.03;16.55;;;;;;;5.58;100.00;102107.78;5036271;28;20029;-75
2024/02/18 08:22:40;;;;;;;58.37;19.57;;;;;;;5.53;100.00;102094.00;5031267;28;20029;-73
2024/02/18 08:25:06;;;;;;;43.20;18.07;;;;;;;5.55;100.00;102087.63;5038963;28;20302;-73
2024/02/18 08:27:31;;;;;;;49.33;19.90;;;;;;;5.70;100.00;102096.41;5043953;28;20048;-76
2024/02/18 08:29:57;;;;;;;52.05;19.45;;;;;;;5.67;100.00;102088.66;5044081;28;20135;-76
2024/02/18 08:32:22;;;;;;;46.70;18.30;;;;;;;5.66;100.00;102087.78;5042720;28;20397;-76
2024/02/18 08:34:48;;;;;;;44.92;17.50;;;;;;;5.88;100.00;102095.22;5052274;28;20035;-76
2024/02/18 08:37:13;;;;;;;46.33;20.37;;;;;;;5.86;100.00;102078.56;5045369;28;20025;-75
2024/02/18 08:39:39;;;;;;;60.57;20.63;;;;;;;5.74;100.00;102091.78;5024705;28;20264;-76
2024/02/18 08:42:04;;;;;;;45.58;19.00;;;;;;;5.90;100.00;102085.38;5038521;28;20053;-76
2024/02/18 08:44:30;;;;;;;50.13;19.13;;;;;;;5.93;100.00;102082.53;5043476;28;20029;-76
2024/02/18 08:46:55;;;;;;;49.38;20.08;;;;;;;5.80;100.00;102065.69;5039538;28;20041;-74
2024/02/18 08:49:23;;;;;;;51.03;20.00;;;;;;;5.77;100.00;102070.38;5043284;28;20068;-74
2024/02/18 08:51:48;;;;;;;45.72;18.83;;;;;;;5.76;100.00;102063.34;5025289;28;20469;-76
2024/02/18 08:54:14;;;;;;;51.28;18.05;;;;;;;6.03;100.00;102098.72;5024034;28;20120;-75
2024/02/18 08:56:39;;;;;;;49.00;20.07;;;;;;;5.77;100.00;102076.50;5016522;28;20424;-76
2024/02/18 08:59:06;;;;;;;63.50;25.10;;;;;;;5.60;100.00;102084.69;5019669;28;20279;-76
2024/02/18 09:01:32;;;;;;;56.05;23.38;;;;;;;5.75;100.00;102112.84;5031495;28;20064;-76
2024/02/18 09:03:58;;;;;;;58.55;20.33;;;;;;;5.76;100.00;102127.81;5029249;28;20119;-76
2024/02/18 09:06:23;;;;;;;55.83;21.57;;;;;;;5.60;100.00;102116.50;5044391;28;20389;-76
2024/02/18 09:08:49;;;;;;;49.87;20.50;;;;;;;5.74;100.00;102137.66;5056670;28;20279;-77
2024/02/18 09:11:14;;;;;;;63.17;20.60;;;;;;;5.79;100.00;102130.28;5046647;28;20033;-77
2024/02/18 09:13:40;;;;;;;55.55;22.23;;;;;;;5.81;100.00;102127.53;5048019;28;20382;-75
2024/02/18 09:16:05;;;;;;;56.30;21.17;;;;;;;5.64;100.00;102123.28;5051931;28;20083;-77
2024/02/18 09:18:31;;;;;;;64.35;24.95;;;;;;;5.71;100.00;102125.47;5043250;28;20458;-75
2024/02/18 09:20:56;;;;;;;73.07;24.42;;;;;;;5.89;100.00;102139.31;5051031;28;20062;-77
2024/02/18 09:23:22;;;;;;;60.22;22.08;;;;;;;5.88;100.00;102140.28;5047546;28;20029;-76
2024/02/18 09:25:47;;;;;;;48.85;19.15;;;;;;;5.73;100.00;102122.69;5058413;28;20061;-77
2024/02/18 09:28:14;;;;;;;61.70;24.73;;;;;;;5.74;100.00;102111.16;5056330;28;20031;-77
2024/02/18 09:30:39;;;;;;;60.40;21.83;;;;;;;6.05;100.00;102125.13;5027800;28;20033;-77
2024/02/18 09:33:06;;;;;;;56.33;22.30;;;;;;;6.07;100.00;102107.31;5041384;28;20029;-76
2024/02/18 09:35:33;;;;;;;58.28;21.85;;;;;;;6.12;100.00;102110.53;5021540;28;20068;-76
2024/02/18 09:37:58;;;;;;;59.00;20.85;;;;;;;5.97;100.00;102100.91;5042251;28;20091;-76
2024/02/18 09:40:24;;;;;;;49.30;22.25;;;;;;;6.13;100.00;102106.91;5054615;28;20487;-76
2024/02/18 09:42:52;;;;;;;56.15;22.27;;;;;;;5.91;100.00;102095.03;5043729;28;20125;-76
2024/02/18 09:45:28;;;;;;;56.88;21.48;;;;;;;6.12;100.00;102103.41;5051888;28;20112;-77
2024/02/18 09:47:56;;;;;;;58.92;21.33;;;;;;;6.07;100.00;102096.72;5050111;28;20119;-76
2024/02/18 09:50:21;;;;;;;47.40;19.45;;;;;;;6.18;100.00;102102.19;5050479;28;20051;-76
2024/02/18 09:52:47;;;;;;;59.53;20.85;;;;;;;6.41;100.00;102107.75;5047809;28;20033;-76
2024/02/18 09:55:14;;;;;;;59.90;23.88;;;;;;;6.32;100.00;102077.38;5030024;28;20100;-77
2024/02/18 09:57:39;;;;;;;47.58;21.65;;;;;;;6.34;100.00;102080.78;5036099;28;20752;-75
2024/02/18 10:00:08;;;;;;;50.93;21.93;;;;;;;6.58;100.00;102098.66;5049477;28;20048;-75
2024/02/18 10:02:34;;;;;;;48.20;22.48;;;;;;;6.49;100.00;102078.91;5053881;28;20282;-79
2024/02/18 10:04:59;;;;;;;;;;;;;;;6.59;100.00;102079.97;5063369;28;20036;-76
2024/02/18 10:07:25;;;;;;;52.75;20.63;;;;;;;6.57;100.00;102076.56;5057960;28;19916;-76
2024/02/18 10:09:51;;;;;;;54.90;20.60;;;;;;;6.29;100.00;102056.34;5059996;28;20087;-78
2024/02/18 10:12:16;;;;;;;49.05;20.10;;;;;;;6.42;100.00;102072.31;5062493;28;20383;-76
2024/02/18 10:14:42;;;;;;;52.78;22.38;;;;;;;6.18;100.00;102058.88;5047532;28;20051;-75
2024/02/18 10:17:07;;;;;;;63.00;23.93;;;;;;;6.45;100.00;102082.72;5053780;28;20032;-77
2024/02/18 10:19:33;;;;;;;58.33;21.80;;;;;;;6.41;100.00;102087.38;5047800;28;20064;-75
2024/02/18 10:22:00;;;;;;;57.95;23.42;;;;;;;6.36;100.00;102068.25;5044103;28;20515;-76
2024/02/18 10:24:27;;;;;;;61.33;24.58;;;;;;;6.46;100.00;102084.41;5066220;28;20035;-76
2024/02/18 10:26:55;;;;;;;58.33;23.85;;;;;;;6.45;100.00;102078.25;5066268;28;20040;-76
2024/02/18 10:29:21;;;;;;;60.65;22.95;;;;;;;6.53;100.00;102070.66;5041956;28;20401;-77
2024/02/18 10:31:46;;;;;;;47.60;19.80;;;;;;;6.79;100.00;102059.19;5044536;28;20040;-76
2024/02/18 10:34:12;;;;;;;63.20;25.60;;;;;;;6.76;100.00;102061.09;5043802;28;20029;-76
2024/02/18 10:36:46;;;;;;;56.65;22.67;;;;;;;6.74;100.00;102048.88;5048010;28;20291;-76
2024/02/18 10:39:15;;;;;;;46.28;21.48;;;;;;;6.74;100.00;102031.16;5053972;28;20376;-77
2024/02/18 10:41:48;;;;;;;59.75;22.83;;;;;;;6.81;100.00;102030.72;5034179;28;20092;-75
2024/02/18 10:44:16;;;;;;;53.28;20.80;;;;;;;6.86;100.00;102033.91;5048391;28;20062;-77
2024/02/18 10:46:45;;;;;;;71.38;27.60;;;;;;;6.99;100.00;102021.47;5044475;28;20068;-78
2024/02/18 10:49:32;;;;;;;51.10;21.83;;;;;;;7.03;100.00;102017.66;5041506;28;20118;-77
2024/02/18 10:52:10;;;;;;;55.40;22.23;;;;;;;6.99;100.00;102002.88;5038093;28;20077;-76
2024/02/18 10:55:05;;;;;;;52.67;21.35;;;;;;;6.92;100.00;101997.16;5044567;28;20047;-76
2024/02/18 10:57:39;;;;;;;46.55;21.42;;;;;;;7.13;100.00;102013.38;5023590;28;20124;-75
2024/02/18 11:00:10;;;;;;;53.63;20.63;;;;;;;7.02;100.00;102004.47;5044291;28;20033;-78
2024/02/18 11:02:48;;;;;;;52.63;21.67;;;;;;;7.19;100.00;102005.00;5037658;28;20098;-76
2024/02/18 11:05:15;;;;;;;49.28;21.23;;;;;;;7.22;100.00;101985.31;5047271;28;20088;-77
2024/02/18 11:07:41;;;;;;;36.67;17.80;;;;;;;7.47;100.00;101996.81;5058948;28;20558;-75
2024/02/18 11:10:07;;;;;;;46.08;18.50;;;;;;;7.42;100.00;101983.03;5029974;28;20037;-77